Archival Weather

Chicago O'Hare International

Chicago, Illinois (KORD)

Report from: Wednesday, January 25, 2023 8:51 AM CST
Current time: Monday, February 6, 2023 12:01 AM CST

Current weather
Weather history
Weather forecast

Present weatherLight snow, mist
Temperature0.6°C (33.1°F)
Wind chill-3.6°C (25.5°F)
Dew point-1.1°C (30.0°F)
Winds 8 kts (4.1 m/s, 9.2 mph) North-Northeast (20°)
Visibility0.8 mi. (1.2 km)
Clouds Ceiling: Overcast 500 ft. (152 m)
Altimeter29.73 in.Hg (1007 mB)
Precipitiation0.02 in. (1 mm)
Precip last 3 hours0.07 in. (2 mm)
Relative humidity88 %
Density altitude-1,450 ft. (-442 m)
Sea-level pressure100.8 kPa (1008 mB, 29.75 in.Hg)
Remarks Automated weather observing station with precipitation discriminator
Pressure falling more quickly
Flight conditions Low Instrument Meteorological Conditions
Raw dataKORD 251451Z 02008KT 3/4SM R10L/4000VP6000FT -SN BR OVC005 01/M01 A2973 RMK AO2 SLP075 P0002 60007 T00061011 58028
An error has occurred. This application may no longer respond until reloaded. Reload 🗙